LIRN

Naples International Airport

Nápoli, Italy
TAF LIRN 221100Z 2212/2312 29009KT 8000 RA SCT020 BKN050
Issued Valid From Valid To
Jan-22 @ 11:00 UTC
(6 hours ago)
Jan-22 @ 12:00 UTC
(5 hours ago)
Jan-23 @ 12:00 UTC
(in 19 hours)
Jan-22 @ 12:00 to Jan-23 @ 12:00
TAF LIRN 221100Z 2212/2312 29009KT 8000 RA SCT020 BKN050
Wind Visibility Clouds Conditions
290° at 9 knots 7,998 meters
  • Scattered at 2,000' AGL
  • Broken at 5,000' AGL
  • Rain
TAF LIRN 221100Z 2212/2312 29009KT 8000 RA SCT020 BKN050
Issued Jan-22 @ 11:00 UTC
(6 hours ago)
Valid From Jan-22 @ 12:00 UTC
(5 hours ago)
Valid To Jan-23 @ 12:00 UTC
(in 19 hours)
Jan-22 @ 12:00 - Jan-23 @ 12:00
Wind Visibility
290° at 9 knots 7,998 meters
Clouds
  • Scattered at 2,000' AGL
  • Broken at 5,000' AGL
Conditions
  • Rain